createdAt,value
2017-07-16T00:00:30.797Z,14.22
2017-07-16T00:01:18.759Z,14.22
2017-07-16T00:02:06.794Z,14.23
2017-07-16T00:02:55.933Z,14.24
2017-07-16T00:03:44.007Z,14.26
2017-07-16T00:04:32.024Z,14.27
2017-07-16T00:05:20.999Z,14.26
2017-07-16T00:06:09.066Z,14.27
2017-07-16T00:06:57.103Z,14.30
2017-07-16T00:07:46.204Z,14.32
2017-07-16T00:08:34.204Z,14.31
2017-07-16T00:09:22.287Z,14.30
2017-07-16T00:10:11.307Z,14.25
2017-07-16T00:10:59.389Z,14.28
2017-07-16T00:11:47.353Z,14.26
2017-07-16T00:12:36.354Z,14.24
2017-07-16T00:13:24.480Z,14.20
2017-07-16T00:14:12.517Z,14.18
2017-07-16T00:15:01.510Z,14.12
2017-07-16T00:15:49.625Z,14.11
2017-07-16T00:16:37.567Z,14.04
2017-07-16T00:17:26.672Z,14.00
2017-07-16T00:18:14.708Z,13.98
2017-07-16T00:19:02.813Z,13.95
2017-07-16T00:19:51.907Z,13.90
2017-07-16T00:20:39.874Z,13.84
2017-07-16T00:21:27.962Z,13.81
2017-07-16T00:22:16.957Z,13.77
2017-07-16T00:23:04.939Z,13.76
2017-07-16T00:23:53.116Z,13.75
2017-07-16T00:24:42.022Z,13.72
2017-07-16T00:25:30.139Z,13.71
2017-07-16T00:26:18.332Z,13.71
2017-07-16T00:27:07.261Z,13.71
2017-07-16T00:27:55.202Z,13.72
2017-07-16T00:28:43.303Z,13.74
2017-07-16T00:29:32.449Z,13.71
2017-07-16T00:30:20.352Z,13.72
2017-07-16T00:31:08.683Z,13.70
2017-07-16T00:31:57.585Z,13.74
2017-07-16T00:32:45.538Z,13.76
2017-07-16T00:33:33.519Z,13.79
2017-07-16T00:34:22.645Z,13.77
2017-07-16T00:35:10.911Z,13.76
2017-07-16T00:35:58.624Z,13.78
2017-07-16T00:36:47.771Z,13.80
2017-07-16T00:37:35.948Z,13.80
2017-07-16T00:38:23.789Z,13.82
2017-07-16T00:39:12.855Z,13.83
2017-07-16T00:40:00.908Z,13.84
2017-07-16T00:40:49.020Z,13.82
2017-07-16T00:41:38.100Z,13.85
2017-07-16T00:42:26.051Z,13.88
2017-07-16T00:43:14.140Z,13.88
2017-07-16T00:44:03.124Z,13.91
2017-07-16T00:44:51.256Z,13.93
2017-07-16T00:45:39.285Z,13.96
2017-07-16T00:46:28.300Z,13.94
2017-07-16T00:47:16.348Z,13.96
2017-07-16T00:48:04.815Z,13.94
2017-07-16T00:48:53.410Z,13.94
2017-07-16T00:49:41.428Z,13.92
2017-07-16T00:50:29.574Z,13.94
2017-07-16T00:51:18.569Z,13.92
2017-07-16T00:52:06.660Z,13.90
2017-07-16T00:52:54.707Z,13.90
2017-07-16T00:53:43.671Z,13.89
2017-07-16T00:54:31.760Z,13.91
2017-07-16T00:55:19.802Z,13.92
2017-07-16T00:56:07.865Z,13.95
2017-07-16T00:56:56.839Z,13.98
2017-07-16T00:57:44.922Z,14.00
2017-07-16T00:58:33.966Z,14.01
2017-07-16T00:59:21.993Z,14.01
2017-07-16T01:00:10.077Z,14.01
2017-07-16T01:00:59.090Z,14.02
2017-07-16T01:01:47.143Z,14.04
2017-07-16T01:02:35.149Z,14.03
2017-07-16T01:03:24.264Z,13.97
2017-07-16T01:04:12.295Z,13.96
2017-07-16T01:05:00.353Z,13.99
2017-07-16T01:05:49.422Z,14.03
2017-07-16T01:06:37.466Z,14.05
2017-07-16T01:07:25.483Z,14.06
2017-07-16T01:08:14.524Z,14.08
2017-07-16T01:09:02.538Z,14.08
2017-07-16T01:09:50.569Z,14.10
2017-07-16T01:10:39.606Z,14.11
2017-07-16T01:11:27.681Z,14.12
2017-07-16T01:12:15.679Z,14.14
2017-07-16T01:13:05.071Z,14.13
2017-07-16T01:13:52.776Z,14.15
2017-07-16T01:14:40.828Z,14.14
2017-07-16T01:15:29.891Z,14.10
2017-07-16T01:16:17.941Z,14.10
2017-07-16T01:17:06.133Z,14.08
2017-07-16T01:17:54.004Z,14.08
2017-07-16T01:18:43.050Z,14.06
2017-07-16T01:19:31.247Z,14.10
2017-07-16T01:20:20.165Z,14.12
2017-07-16T01:21:08.269Z,14.13
2017-07-16T01:21:56.321Z,14.11
2017-07-16T01:22:45.300Z,14.13
2017-07-16T01:23:33.284Z,14.12
2017-07-16T01:24:21.468Z,14.12
2017-07-16T01:25:10.470Z,14.16
2017-07-16T01:25:58.437Z,14.16
2017-07-16T01:26:46.552Z,14.16
2017-07-16T01:27:35.761Z,14.21
2017-07-16T01:28:23.678Z,14.22
2017-07-16T01:29:11.610Z,14.22
2017-07-16T01:30:05.724Z,14.25
2017-07-16T01:30:53.728Z,14.25
2017-07-16T01:31:42.841Z,14.25
2017-07-16T01:32:36.839Z,14.27
2017-07-16T01:33:24.974Z,14.26
2017-07-16T01:34:12.889Z,14.25
2017-07-16T01:35:00.963Z,14.26
2017-07-16T01:35:49.996Z,14.28
2017-07-16T01:36:38.108Z,14.29
2017-07-16T01:37:26.131Z,14.27
2017-07-16T01:38:15.089Z,14.30
2017-07-16T01:39:03.256Z,14.28
2017-07-16T01:39:51.240Z,14.29
2017-07-16T01:40:39.266Z,14.24
2017-07-16T01:41:28.342Z,14.18
2017-07-16T01:42:16.389Z,14.15
2017-07-16T01:43:10.381Z,14.18
2017-07-16T01:43:59.465Z,14.18
2017-07-16T01:44:47.606Z,14.18
2017-07-16T01:45:35.532Z,14.18
2017-07-16T01:46:23.584Z,14.19
2017-07-16T01:47:11.617Z,14.21
2017-07-16T01:48:00.803Z,14.22
2017-07-16T01:48:48.770Z,14.23
2017-07-16T01:49:36.803Z,14.27
2017-07-16T01:50:31.848Z,14.29
2017-07-16T01:51:25.804Z,14.29
2017-07-16T01:52:14.865Z,14.31
2017-07-16T01:53:03.190Z,14.34
2017-07-16T01:53:52.020Z,14.34
2017-07-16T01:54:40.026Z,14.34
2017-07-16T01:55:28.001Z,14.31
2017-07-16T01:56:23.189Z,14.32
2017-07-16T01:57:12.196Z,14.32
2017-07-16T01:58:01.150Z,14.34
2017-07-16T01:59:01.481Z,14.34
2017-07-16T01:59:55.242Z,14.35
2017-07-16T02:00:55.344Z,14.36
2017-07-16T02:01:50.475Z,14.34
2017-07-16T02:02:45.678Z,14.34
2017-07-16T02:03:45.483Z,14.34
2017-07-16T02:04:40.454Z,14.32
2017-07-16T02:05:40.479Z,14.30
2017-07-16T02:06:40.481Z,14.28
2017-07-16T02:07:40.546Z,14.26
2017-07-16T02:08:40.585Z,14.26
2017-07-16T02:09:46.641Z,14.27
2017-07-16T02:10:41.721Z,14.26
2017-07-16T02:11:42.742Z,14.23
2017-07-16T02:12:43.022Z,14.21
2017-07-16T02:13:37.752Z,14.21
2017-07-16T02:14:37.771Z,14.21
2017-07-16T02:15:31.830Z,14.21
2017-07-16T02:16:31.852Z,14.24
2017-07-16T02:17:26.938Z,14.22
2017-07-16T02:18:26.998Z,14.21
2017-07-16T02:19:27.032Z,14.21
2017-07-16T02:20:27.093Z,14.20
2017-07-16T02:21:21.097Z,14.22
2017-07-16T02:22:21.121Z,14.20
2017-07-16T02:23:16.157Z,14.24
2017-07-16T02:24:11.284Z,14.26
2017-07-16T02:25:12.226Z,14.23
2017-07-16T02:26:12.263Z,14.25
2017-07-16T02:27:07.568Z,14.29
2017-07-16T02:28:07.661Z,14.34
2017-07-16T02:29:01.393Z,14.32
2017-07-16T02:30:01.432Z,14.32
2017-07-16T02:30:56.404Z,14.29
2017-07-16T02:31:51.557Z,14.30
2017-07-16T02:32:51.583Z,14.32
2017-07-16T02:33:51.550Z,14.32
2017-07-16T02:34:52.649Z,14.32
2017-07-16T02:35:53.798Z,14.32
2017-07-16T02:36:48.597Z,14.34
2017-07-16T02:37:42.765Z,14.32
2017-07-16T02:38:42.769Z,14.30
2017-07-16T02:39:37.750Z,14.32
2017-07-16T02:40:32.836Z,14.38
2017-07-16T02:41:28.017Z,14.43
2017-07-16T02:42:15.883Z,14.46
2017-07-16T02:43:04.258Z,14.44
2017-07-16T02:43:58.000Z,14.44
2017-07-16T02:44:47.055Z,14.45
2017-07-16T02:45:35.074Z,14.43
2017-07-16T02:46:24.132Z,14.41
2017-07-16T02:47:12.254Z,14.40
2017-07-16T02:48:06.539Z,14.38
2017-07-16T02:49:06.239Z,14.37
2017-07-16T02:50:06.318Z,14.37
2017-07-16T02:51:01.287Z,14.49
2017-07-16T02:51:50.321Z,14.46
2017-07-16T02:52:45.759Z,14.47
2017-07-16T02:53:40.518Z,14.44
2017-07-16T02:54:34.490Z,14.40
2017-07-16T02:55:35.519Z,14.39
2017-07-16T02:56:36.490Z,14.35
2017-07-16T02:57:31.662Z,14.36
2017-07-16T02:58:25.574Z,14.32
2017-07-16T02:59:25.732Z,14.37
2017-07-16T03:00:20.747Z,14.35
2017-07-16T03:01:20.747Z,14.38
2017-07-16T03:02:21.063Z,14.36
2017-07-16T03:03:20.783Z,14.38
2017-07-16T03:04:20.819Z,14.36
2017-07-16T03:05:15.885Z,14.36
2017-07-16T03:06:10.897Z,14.39
2017-07-16T03:06:59.951Z,14.38
2017-07-16T03:07:48.022Z,14.35
2017-07-16T03:08:36.015Z,14.34
2017-07-16T03:09:24.081Z,14.33
2017-07-16T03:10:19.079Z,14.36
2017-07-16T03:11:14.128Z,14.32
2017-07-16T03:12:14.306Z,14.33
2017-07-16T03:13:08.265Z,14.32
2017-07-16T03:13:57.382Z,14.29
2017-07-16T03:14:45.501Z,14.30
2017-07-16T03:15:34.392Z,14.28
2017-07-16T03:16:29.441Z,14.32
2017-07-16T03:17:17.550Z,14.36
2017-07-16T03:18:06.508Z,14.36
2017-07-16T03:18:55.574Z,14.33
2017-07-16T03:19:44.643Z,14.35
2017-07-16T03:20:33.655Z,14.36
2017-07-16T03:21:21.756Z,14.40
2017-07-16T03:22:09.796Z,14.40
2017-07-16T03:22:57.805Z,14.39
2017-07-16T03:23:46.841Z,14.40
2017-07-16T03:24:34.985Z,14.37
2017-07-16T03:25:23.882Z,14.38
2017-07-16T03:26:11.965Z,14.37
2017-07-16T03:27:00.028Z,14.39
2017-07-16T03:27:49.048Z,14.38
2017-07-16T03:28:37.125Z,14.37
2017-07-16T03:29:25.106Z,14.36
2017-07-16T03:30:25.236Z,14.37
2017-07-16T03:31:13.235Z,14.34
2017-07-16T03:32:07.430Z,14.34
2017-07-16T03:33:02.377Z,14.30
2017-07-16T03:34:02.294Z,14.29
2017-07-16T03:35:02.448Z,14.32
2017-07-16T03:36:02.497Z,14.31
2017-07-16T03:37:02.544Z,14.32
2017-07-16T03:38:02.556Z,14.32
2017-07-16T03:39:08.512Z,14.30
2017-07-16T03:40:08.574Z,14.29
2017-07-16T03:41:09.641Z,14.26
2017-07-16T03:42:10.723Z,14.27
2017-07-16T03:43:10.732Z,14.29
2017-07-16T03:43:58.766Z,14.27
2017-07-16T03:44:52.819Z,14.26
2017-07-16T03:45:40.819Z,14.28
2017-07-16T03:46:28.884Z,14.26
2017-07-16T03:47:16.923Z,14.26
2017-07-16T03:48:17.040Z,14.32
2017-07-16T03:49:12.062Z,14.29
2017-07-16T03:50:12.008Z,14.32
2017-07-16T03:51:12.016Z,14.34
2017-07-16T03:52:12.167Z,14.42
2017-07-16T03:53:12.113Z,14.42
2017-07-16T03:54:12.222Z,14.38
2017-07-16T03:55:12.195Z,14.38
2017-07-16T03:56:12.313Z,14.37
2017-07-16T03:57:18.281Z,14.40
2017-07-16T03:58:13.282Z,14.34
2017-07-16T03:59:13.429Z,14.38
2017-07-16T04:00:13.409Z,14.38
2017-07-16T04:01:07.502Z,14.41
2017-07-16T04:02:07.506Z,14.42
2017-07-16T04:03:02.601Z,14.31
2017-07-16T04:03:57.587Z,14.38
2017-07-16T04:04:51.642Z,14.35
2017-07-16T04:05:52.614Z,14.41
2017-07-16T04:06:52.701Z,14.46
2017-07-16T04:07:46.704Z,14.48
2017-07-16T04:08:35.751Z,14.51
2017-07-16T04:09:24.018Z,14.44
2017-07-16T04:10:11.891Z,14.39
2017-07-16T04:11:00.967Z,14.40
2017-07-16T04:11:48.879Z,14.39
2017-07-16T04:12:38.047Z,14.42
2017-07-16T04:13:26.117Z,14.42
2017-07-16T04:14:20.141Z,14.40
2017-07-16T04:15:15.178Z,14.38
2017-07-16T04:16:15.185Z,14.41
2017-07-16T04:17:15.229Z,14.36
2017-07-16T04:18:15.277Z,14.38
2017-07-16T04:19:15.220Z,14.38
2017-07-16T04:20:09.350Z,14.43
2017-07-16T04:21:03.335Z,14.46
2017-07-16T04:22:03.398Z,14.44
2017-07-16T04:23:03.690Z,14.48
2017-07-16T04:24:04.493Z,14.48
2017-07-16T04:24:58.545Z,14.48
2017-07-16T04:25:53.566Z,14.46
2017-07-16T04:26:53.683Z,14.48
2017-07-16T04:27:47.696Z,14.47
2017-07-16T04:28:48.646Z,14.46
2017-07-16T04:29:49.630Z,14.42
2017-07-16T04:30:49.723Z,14.44
2017-07-16T04:31:49.760Z,14.46
2017-07-16T04:32:43.819Z,14.47
2017-07-16T04:33:37.797Z,14.47
2017-07-16T04:34:37.948Z,14.46
2017-07-16T04:35:37.901Z,14.54
2017-07-16T04:36:32.927Z,14.48
2017-07-16T04:37:33.052Z,14.49
2017-07-16T04:38:28.097Z,14.48
2017-07-16T04:39:28.136Z,14.52
2017-07-16T04:40:23.228Z,14.48
2017-07-16T04:41:17.185Z,14.50
2017-07-16T04:42:12.138Z,14.60
2017-07-16T04:43:00.235Z,14.60
2017-07-16T04:43:54.359Z,14.62
2017-07-16T04:44:55.354Z,14.64
2017-07-16T04:45:50.371Z,14.66
2017-07-16T04:46:50.381Z,14.68
2017-07-16T04:47:50.478Z,14.71
2017-07-16T04:48:50.499Z,14.74
2017-07-16T04:49:56.552Z,14.75
2017-07-16T04:50:51.574Z,14.80
2017-07-16T04:51:45.693Z,14.82
2017-07-16T04:52:40.710Z,14.78
2017-07-16T04:53:40.631Z,14.84
2017-07-16T04:54:40.761Z,14.85
2017-07-16T04:55:34.765Z,14.91
2017-07-16T04:56:28.806Z,14.88
2017-07-16T04:57:30.322Z,14.90
2017-07-16T04:58:18.899Z,14.88
2017-07-16T04:59:12.936Z,14.86
2017-07-16T05:00:02.019Z,14.89
2017-07-16T05:00:56.109Z,14.96
2017-07-16T05:01:56.008Z,14.87
2017-07-16T05:02:51.166Z,14.92
2017-07-16T05:03:46.300Z,14.90
2017-07-16T05:04:46.344Z,14.88
2017-07-16T05:05:41.287Z,14.94
2017-07-16T05:06:36.233Z,14.99
2017-07-16T05:07:30.241Z,14.98
2017-07-16T05:08:18.324Z,14.98
2017-07-16T05:09:06.428Z,14.99
2017-07-16T05:09:55.411Z,14.96
2017-07-16T05:10:44.406Z,15.00
2017-07-16T05:11:38.557Z,14.96
2017-07-16T05:12:33.570Z,14.95
2017-07-16T05:13:21.632Z,14.98
2017-07-16T05:14:09.691Z,14.99
2017-07-16T05:15:03.959Z,14.98
2017-07-16T05:15:52.744Z,15.02
2017-07-16T05:16:46.890Z,15.05
2017-07-16T05:17:46.846Z,15.06
2017-07-16T05:18:35.868Z,15.06
2017-07-16T05:19:29.919Z,14.98
2017-07-16T05:20:30.002Z,15.01
2017-07-16T05:21:19.151Z,14.94
2017-07-16T05:22:14.151Z,14.90
2017-07-16T05:23:14.083Z,14.97
2017-07-16T05:24:03.157Z,14.94
2017-07-16T05:24:57.175Z,15.01
2017-07-16T05:25:52.290Z,14.96
2017-07-16T05:26:46.367Z,15.00
2017-07-16T05:27:40.393Z,14.97
2017-07-16T05:28:40.347Z,14.97
2017-07-16T05:29:35.545Z,14.99
2017-07-16T05:30:30.384Z,15.04
2017-07-16T05:31:24.502Z,15.08
2017-07-16T05:32:24.836Z,15.06
2017-07-16T05:33:19.580Z,15.10
2017-07-16T05:34:14.572Z,15.02
2017-07-16T05:35:08.592Z,15.05
2017-07-16T05:36:08.649Z,14.98
2017-07-16T05:37:03.793Z,15.08
2017-07-16T05:37:51.805Z,15.06
2017-07-16T05:38:45.808Z,15.02
2017-07-16T05:39:40.059Z,15.01
2017-07-16T05:40:33.934Z,14.97
2017-07-16T05:41:27.912Z,14.93
2017-07-16T05:42:29.193Z,14.99
2017-07-16T05:43:17.055Z,14.96
2017-07-16T05:44:06.113Z,14.96
2017-07-16T05:45:00.085Z,15.02
2017-07-16T05:46:00.208Z,14.97
2017-07-16T05:47:00.313Z,15.11
2017-07-16T05:48:00.249Z,15.08
2017-07-16T05:48:54.294Z,15.11
2017-07-16T05:49:54.341Z,15.13
2017-07-16T05:50:49.276Z,15.19
2017-07-16T05:51:43.397Z,15.21
2017-07-16T05:52:43.440Z,15.25
2017-07-16T05:53:43.426Z,15.32
2017-07-16T05:54:43.559Z,15.34
2017-07-16T05:55:37.554Z,15.37
2017-07-16T05:56:31.660Z,15.40
2017-07-16T05:57:19.586Z,15.42
2017-07-16T05:58:20.668Z,15.44
2017-07-16T05:59:20.746Z,15.54
2017-07-16T06:00:15.741Z,15.54
2017-07-16T06:01:04.867Z,15.54
2017-07-16T06:01:58.948Z,15.54
2017-07-16T06:02:52.917Z,15.60
2017-07-16T06:03:41.988Z,15.62
2017-07-16T06:04:29.942Z,15.66
2017-07-16T06:05:19.057Z,15.70
2017-07-16T06:06:07.251Z,15.71
2017-07-16T06:06:56.148Z,15.72
2017-07-16T06:07:51.134Z,15.76
2017-07-16T06:08:45.170Z,15.82
2017-07-16T06:09:40.261Z,15.79
2017-07-16T06:10:40.388Z,15.87
2017-07-16T06:11:34.647Z,15.82
2017-07-16T06:12:29.706Z,15.80
2017-07-16T06:13:18.460Z,15.78
2017-07-16T06:14:12.486Z,15.80
2017-07-16T06:15:12.529Z,15.88
2017-07-16T06:16:00.563Z,15.84
2017-07-16T06:16:55.716Z,15.79
2017-07-16T06:17:56.629Z,15.80
2017-07-16T06:18:51.712Z,15.73
2017-07-16T06:19:40.786Z,15.73
2017-07-16T06:20:29.758Z,15.70
2017-07-16T06:21:24.790Z,15.73
2017-07-16T06:22:18.940Z,15.72
2017-07-16T06:23:12.938Z,15.73
2017-07-16T06:24:01.931Z,15.72
2017-07-16T06:25:02.038Z,15.75
2017-07-16T06:25:56.135Z,15.83
2017-07-16T06:26:51.029Z,15.78
2017-07-16T06:27:51.078Z,15.88
2017-07-16T06:28:45.135Z,15.85
2017-07-16T06:29:45.234Z,15.95
2017-07-16T06:30:39.216Z,15.94
2017-07-16T06:31:27.277Z,15.91
2017-07-16T06:32:15.388Z,15.92
2017-07-16T06:33:04.441Z,15.93
2017-07-16T06:33:53.407Z,15.97
2017-07-16T06:34:42.539Z,16.05
2017-07-16T06:35:30.558Z,16.03
2017-07-16T06:36:19.563Z,16.12
2017-07-16T06:37:08.620Z,16.24
2017-07-16T06:37:57.648Z,16.29
2017-07-16T06:38:45.766Z,16.34
2017-07-16T06:39:39.782Z,16.40
2017-07-16T06:40:33.871Z,16.52
2017-07-16T06:41:33.828Z,16.48
2017-07-16T06:42:22.859Z,16.49
2017-07-16T06:43:11.938Z,16.50
2017-07-16T06:44:06.016Z,16.46
2017-07-16T06:45:01.147Z,16.44
2017-07-16T06:45:55.059Z,16.31
2017-07-16T06:46:49.163Z,16.32
2017-07-16T06:47:43.220Z,16.32
2017-07-16T06:48:43.158Z,16.24
2017-07-16T06:49:37.280Z,16.22
2017-07-16T06:50:37.354Z,16.27
2017-07-16T06:51:31.461Z,16.26
2017-07-16T06:52:25.618Z,16.35
2017-07-16T06:53:13.528Z,16.38
2017-07-16T06:54:02.519Z,16.38
2017-07-16T06:54:50.666Z,16.38
2017-07-16T06:55:45.612Z,16.40
2017-07-16T06:56:45.602Z,16.46
2017-07-16T06:57:40.629Z,16.36
2017-07-16T06:58:40.716Z,16.32
2017-07-16T06:59:35.755Z,16.35
2017-07-16T07:00:30.889Z,16.24
2017-07-16T07:01:30.806Z,16.27
2017-07-16T07:02:26.095Z,16.21
2017-07-16T07:03:19.920Z,16.22
2017-07-16T07:04:07.937Z,16.19
2017-07-16T07:04:56.215Z,16.24
2017-07-16T07:05:45.049Z,16.16
2017-07-16T07:06:39.059Z,16.15
2017-07-16T07:07:33.378Z,16.18
2017-07-16T07:08:28.378Z,16.18
2017-07-16T07:09:22.206Z,16.28
2017-07-16T07:10:22.296Z,16.29
2017-07-16T07:11:11.667Z,16.37
2017-07-16T07:12:06.354Z,16.42
2017-07-16T07:13:00.440Z,16.35
2017-07-16T07:13:55.419Z,16.55
2017-07-16T07:14:55.521Z,16.59
2017-07-16T07:15:50.544Z,16.57
2017-07-16T07:16:44.725Z,16.73
2017-07-16T07:17:38.583Z,16.86
2017-07-16T07:18:32.900Z,17.01
2017-07-16T07:19:27.708Z,17.14
2017-07-16T07:20:22.811Z,17.26
2017-07-16T07:21:16.830Z,17.41
2017-07-16T07:22:17.854Z,17.56
2017-07-16T07:23:12.928Z,17.60
2017-07-16T07:24:07.980Z,17.43
2017-07-16T07:25:02.029Z,17.36
2017-07-16T07:26:02.990Z,17.20
2017-07-16T07:27:04.110Z,17.07
2017-07-16T07:27:58.167Z,17.06
2017-07-16T07:28:52.197Z,16.94
2017-07-16T07:29:47.169Z,16.87
2017-07-16T07:30:41.451Z,16.78
2017-07-16T07:31:30.382Z,16.65
2017-07-16T07:32:18.300Z,16.72
2017-07-16T07:33:12.527Z,16.65
2017-07-16T07:34:06.416Z,16.62
2017-07-16T07:35:01.484Z,16.48
2017-07-16T07:35:56.478Z,16.34
2017-07-16T07:36:45.640Z,16.28
2017-07-16T07:37:39.552Z,16.24
2017-07-16T07:38:39.910Z,16.24
2017-07-16T07:39:39.828Z,16.18
2017-07-16T07:40:34.827Z,16.22
2017-07-16T07:41:28.880Z,16.14
2017-07-16T07:42:23.857Z,16.10
2017-07-16T07:43:17.892Z,16.27
2017-07-16T07:44:13.062Z,16.33
2017-07-16T07:45:07.055Z,16.34
2017-07-16T07:46:01.094Z,16.42
2017-07-16T07:47:01.132Z,16.48
2017-07-16T07:47:50.340Z,16.58
2017-07-16T07:48:44.130Z,16.65
2017-07-16T07:49:39.265Z,16.78
2017-07-16T07:50:39.218Z,16.79
2017-07-16T07:51:34.276Z,16.80
2017-07-16T07:52:22.286Z,16.92
2017-07-16T07:53:23.375Z,16.89
2017-07-16T07:54:17.439Z,16.90
2017-07-16T07:55:05.529Z,16.88
2017-07-16T07:55:54.636Z,16.90
2017-07-16T07:56:49.648Z,16.96
2017-07-16T07:57:49.660Z,16.98
2017-07-16T07:58:44.804Z,17.04
2017-07-16T07:59:39.742Z,17.08
2017-07-16T08:00:39.785Z,17.18
2017-07-16T08:01:33.787Z,17.20
2017-07-16T08:02:28.140Z,17.14
2017-07-16T08:03:21.926Z,17.16
2017-07-16T08:04:22.986Z,17.10
2017-07-16T08:05:22.981Z,17.12
2017-07-16T08:06:17.091Z,17.07
2017-07-16T08:07:12.031Z,17.00
2017-07-16T08:08:07.144Z,17.04
2017-07-16T08:09:01.090Z,17.10
2017-07-16T08:09:56.217Z,17.04
2017-07-16T08:10:56.308Z,17.05
2017-07-16T08:11:50.284Z,17.11
2017-07-16T08:12:50.325Z,17.04
2017-07-16T08:13:39.395Z,17.09
2017-07-16T08:14:33.475Z,16.96
2017-07-16T08:15:21.418Z,16.92
2017-07-16T08:16:16.580Z,16.90
2017-07-16T08:17:10.676Z,16.78
2017-07-16T08:18:11.617Z,16.72
2017-07-16T08:19:05.699Z,16.70
2017-07-16T08:20:00.860Z,16.62
2017-07-16T08:20:54.735Z,16.58
2017-07-16T08:21:49.803Z,16.62
2017-07-16T08:22:43.843Z,16.72
2017-07-16T08:23:32.938Z,16.73
2017-07-16T08:24:28.005Z,16.84
2017-07-16T08:25:23.040Z,16.90
2017-07-16T08:26:24.024Z,17.02
2017-07-16T08:27:25.110Z,17.09
2017-07-16T08:28:19.160Z,17.14
2017-07-16T08:29:19.165Z,17.20
2017-07-16T08:30:08.245Z,17.30
2017-07-16T08:31:02.370Z,17.34
2017-07-16T08:31:56.356Z,17.40
2017-07-16T08:32:56.373Z,17.40
2017-07-16T08:33:50.442Z,17.42
2017-07-16T08:34:44.460Z,17.33
2017-07-16T08:35:33.527Z,17.45
2017-07-16T08:36:28.571Z,17.39
2017-07-16T08:37:22.614Z,17.50
2017-07-16T08:38:16.605Z,17.45
2017-07-16T08:39:10.802Z,17.45
2017-07-16T08:40:05.733Z,17.54
2017-07-16T08:41:00.807Z,17.39
2017-07-16T08:41:54.820Z,17.42
2017-07-16T08:42:54.853Z,17.38
2017-07-16T08:43:49.981Z,17.36
2017-07-16T08:44:44.902Z,17.29
2017-07-16T08:45:34.002Z,17.23
2017-07-16T08:46:34.031Z,17.19
2017-07-16T08:47:34.453Z,17.21
2017-07-16T08:48:34.155Z,17.12
2017-07-16T08:49:34.157Z,17.00
2017-07-16T08:50:34.251Z,16.87
2017-07-16T08:51:34.291Z,16.86
2017-07-16T08:52:34.580Z,16.80
2017-07-16T08:53:34.270Z,16.73
2017-07-16T08:54:34.315Z,16.74
2017-07-16T08:55:34.442Z,16.72
2017-07-16T08:56:22.531Z,16.79
2017-07-16T08:57:22.490Z,16.84
2017-07-16T08:58:11.634Z,16.90
2017-07-16T08:59:11.625Z,16.98
2017-07-16T09:00:00.628Z,17.17
2017-07-16T09:00:54.804Z,17.36
2017-07-16T09:02:00.725Z,17.48
2017-07-16T09:02:54.883Z,17.57
2017-07-16T09:03:54.835Z,17.68
2017-07-16T09:04:54.847Z,17.59
2017-07-16T09:05:49.916Z,17.60
2017-07-16T09:06:49.958Z,17.54
2017-07-16T09:07:44.019Z,17.37
2017-07-16T09:08:38.110Z,17.46
2017-07-16T09:09:32.073Z,17.54
2017-07-16T09:10:27.404Z,17.45
2017-07-16T09:11:21.381Z,17.60
2017-07-16T09:12:21.363Z,17.58
2017-07-16T09:13:21.297Z,17.66
2017-07-16T09:14:21.631Z,17.54
2017-07-16T09:15:21.351Z,17.46
2017-07-16T09:16:15.538Z,17.42
2017-07-16T09:17:04.555Z,17.44
2017-07-16T09:17:52.486Z,17.50
2017-07-16T09:18:41.527Z,17.55
2017-07-16T09:19:36.637Z,17.51
2017-07-16T09:20:36.790Z,17.39
2017-07-16T09:21:30.765Z,17.42
2017-07-16T09:22:19.822Z,17.42
2017-07-16T09:23:19.771Z,17.37
2017-07-16T09:24:15.042Z,17.40
2017-07-16T09:25:09.006Z,17.52
2017-07-16T09:26:02.968Z,17.47
2017-07-16T09:26:58.219Z,17.46
2017-07-16T09:27:53.032Z,17.52
2017-07-16T09:28:53.134Z,17.52
2017-07-16T09:29:47.115Z,17.54
2017-07-16T09:30:41.225Z,17.50
2017-07-16T09:31:35.277Z,17.60
2017-07-16T09:32:24.359Z,17.67
2017-07-16T09:33:19.357Z,17.68
2017-07-16T09:34:19.314Z,17.72
2017-07-16T09:35:14.472Z,17.70
2017-07-16T09:36:09.465Z,17.78
2017-07-16T09:37:09.492Z,17.71
2017-07-16T09:38:03.767Z,17.64
2017-07-16T09:38:52.647Z,17.57
2017-07-16T09:39:40.644Z,17.68
2017-07-16T09:40:34.746Z,17.88
2017-07-16T09:41:23.741Z,17.95
2017-07-16T09:42:18.832Z,18.06
2017-07-16T09:43:19.039Z,17.92
2017-07-16T09:44:13.887Z,17.95
2017-07-16T09:45:07.962Z,17.98
2017-07-16T09:46:08.067Z,18.19
2017-07-16T09:47:08.133Z,18.32
2017-07-16T09:48:02.026Z,18.25
2017-07-16T09:48:51.143Z,18.28
2017-07-16T09:49:39.167Z,18.46
2017-07-16T09:50:39.275Z,18.48
2017-07-16T09:51:33.262Z,18.69
2017-07-16T09:52:27.320Z,18.58
2017-07-16T09:53:22.337Z,18.80
2017-07-16T09:54:23.495Z,18.73
2017-07-16T09:55:23.467Z,18.65
2017-07-16T09:56:11.553Z,18.75
2017-07-16T09:57:05.546Z,18.90
2017-07-16T09:57:59.707Z,18.98
2017-07-16T09:58:53.804Z,19.09
2017-07-16T09:59:48.734Z,19.38
2017-07-16T10:00:37.842Z,19.46
2017-07-16T10:01:37.844Z,19.80
2017-07-16T10:02:32.229Z,20.32
2017-07-16T10:03:26.229Z,20.62
2017-07-16T10:04:14.041Z,20.81
2017-07-16T10:05:03.113Z,21.22
2017-07-16T10:05:57.115Z,21.50
2017-07-16T10:06:51.163Z,21.72
2017-07-16T10:07:45.387Z,22.12
2017-07-16T10:08:40.353Z,22.44
2017-07-16T10:09:34.393Z,22.60
2017-07-16T10:10:29.463Z,22.83
2017-07-16T10:11:18.505Z,23.12
2017-07-16T10:12:18.571Z,23.40
2017-07-16T10:13:18.669Z,23.37
2017-07-16T10:14:06.715Z,22.98
2017-07-16T10:15:00.897Z,23.00
2017-07-16T10:15:48.884Z,23.05
2017-07-16T10:16:49.969Z,23.12
2017-07-16T10:17:45.090Z,22.87
2017-07-16T10:18:39.042Z,23.01
2017-07-16T10:19:28.255Z,23.25
2017-07-16T10:20:23.406Z,23.39
2017-07-16T10:21:17.490Z,23.64
2017-07-16T10:22:11.465Z,23.79
2017-07-16T10:23:06.413Z,23.59
2017-07-16T10:24:00.679Z,23.86
2017-07-16T10:24:54.523Z,23.91
2017-07-16T10:25:55.742Z,24.01
2017-07-16T10:26:44.934Z,24.04
2017-07-16T10:27:40.302Z,24.16
2017-07-16T10:28:33.868Z,24.35
2017-07-16T10:29:23.120Z,24.28
2017-07-16T10:30:18.273Z,24.10
2017-07-16T10:31:06.169Z,23.78
2017-07-16T10:32:00.146Z,23.90
2017-07-16T10:32:55.267Z,23.76
2017-07-16T10:33:55.346Z,23.85
2017-07-16T10:34:55.682Z,23.65
2017-07-16T10:35:56.509Z,23.67
2017-07-16T10:36:50.628Z,23.46
2017-07-16T10:37:45.520Z,23.45
2017-07-16T10:38:39.679Z,23.48
2017-07-16T10:39:33.758Z,23.50
2017-07-16T10:40:22.831Z,23.03
2017-07-16T10:41:16.900Z,22.99
2017-07-16T10:42:10.991Z,23.12
2017-07-16T10:43:05.956Z,23.17
2017-07-16T10:44:01.112Z,23.23
2017-07-16T10:44:55.297Z,23.47
2017-07-16T10:45:50.311Z,23.88
2017-07-16T10:46:44.356Z,24.08
2017-07-16T10:47:39.658Z,24.24
2017-07-16T10:48:34.707Z,24.12
2017-07-16T10:49:28.739Z,24.10
2017-07-16T10:50:17.751Z,23.98
2017-07-16T10:51:06.910Z,23.62
2017-07-16T10:52:00.964Z,23.60
2017-07-16T10:52:55.037Z,23.48
2017-07-16T10:53:43.991Z,23.52
2017-07-16T10:54:38.156Z,23.34
2017-07-16T10:55:33.277Z,23.07
2017-07-16T10:56:27.344Z,22.93
2017-07-16T10:57:16.425Z,22.84
2017-07-16T10:58:11.403Z,22.82
2017-07-16T10:59:11.487Z,22.81
2017-07-16T11:00:06.515Z,22.94
2017-07-16T11:01:00.606Z,22.80
2017-07-16T11:01:49.447Z,22.73
2017-07-16T11:02:43.774Z,22.65
2017-07-16T11:03:38.480Z,22.28
2017-07-16T11:04:27.684Z,22.06
2017-07-16T11:05:22.922Z,21.75
2017-07-16T11:06:11.937Z,21.80
2017-07-16T11:07:05.989Z,21.53
2017-07-16T11:08:06.047Z,21.44
2017-07-16T11:08:55.069Z,21.11
2017-07-16T11:09:49.150Z,20.97
2017-07-16T11:10:43.222Z,20.74
2017-07-16T11:11:38.286Z,20.87
2017-07-16T11:12:27.258Z,21.20
2017-07-16T11:13:27.446Z,21.82
2017-07-16T11:14:22.493Z,22.37
2017-07-16T11:15:10.662Z,22.62
2017-07-16T11:16:05.660Z,22.74
2017-07-16T11:16:53.791Z,23.18
2017-07-16T11:17:47.866Z,23.22
2017-07-16T11:18:36.928Z,23.42
2017-07-16T11:19:30.812Z,23.40
2017-07-16T11:20:24.900Z,23.38
2017-07-16T11:21:12.842Z,23.32
2017-07-16T11:22:12.953Z,23.25
2017-07-16T11:23:07.154Z,23.28
2017-07-16T11:24:01.195Z,23.02
2017-07-16T11:24:56.299Z,22.72
2017-07-16T11:25:45.504Z,22.39
2017-07-16T11:26:39.439Z,22.28
2017-07-16T11:27:33.668Z,22.24
2017-07-16T11:28:27.586Z,22.40
2017-07-16T11:29:22.635Z,22.32
2017-07-16T11:30:11.563Z,22.16
2017-07-16T11:31:05.802Z,22.03